Time;durP1;ratioP1;P1;durP2;ratioP2;P2;SDS_P1;SDS_P2;PMS_P1;PMS_P2;Temp;Humidity;BMP_temperature;BMP_pressure;BME280_temperature;BME280_humidity;BME280_pressure;Samples;Min_cycle;Max_cycle;Signal;HPM_P1;HPM_P2
2021/10/24 00:01:11;;;;;;;9.90;8.10;;;6.50;99.90;;;;;;5012370;28;20183;-71
2021/10/24 00:03:37;;;;;;;10.37;8.90;;;6.40;99.90;;;;;;5012153;28;20180;-70
2021/10/24 00:06:03;;;;;;;11.00;8.77;;;6.30;99.90;;;;;;5010096;28;20303;-71
2021/10/24 00:08:29;;;;;;;13.20;8.73;;;6.30;99.90;;;;;;5013037;28;20501;-71
2021/10/24 00:10:55;;;;;;;13.10;8.00;;;6.30;99.90;;;;;;5012350;28;20172;-71
2021/10/24 00:13:20;;;;;;;12.90;8.50;;;6.30;99.90;;;;;;5011932;28;20415;-70
2021/10/24 00:15:46;;;;;;;10.90;8.37;;;6.20;99.90;;;;;;5012999;28;20207;-71
2021/10/24 00:18:12;;;;;;;9.47;7.53;;;6.20;99.90;;;;;;5012153;28;20179;-70
2021/10/24 00:20:38;;;;;;;9.57;7.80;;;6.20;99.90;;;;;;5012228;28;20172;-68
2021/10/24 00:23:03;;;;;;;10.87;8.37;;;6.10;99.90;;;;;;5012273;28;20415;-71
2021/10/24 00:25:29;;;;;;;12.70;8.40;;;6.10;99.90;;;;;;5012870;28;20207;-72
2021/10/24 00:27:54;;;;;;;10.53;8.50;;;6.10;99.90;;;;;;5011902;28;20180;-71
2021/10/24 00:30:20;;;;;;;9.90;7.97;;;6.10;99.90;;;;;;5012374;28;20629;-71
2021/10/24 00:32:46;;;;;;;13.93;8.90;;;6.10;99.90;;;;;;5012215;28;20176;-71
2021/10/24 00:35:11;;;;;;;13.70;9.00;;;6.10;99.90;;;;;;5011575;28;20183;-70
2021/10/24 00:37:37;;;;;;;12.10;8.53;;;6.10;99.90;;;;;;5013381;28;20193;-70
2021/10/24 00:40:04;;;;;;;10.57;7.87;;;6.00;99.90;;;;;;5012216;28;20172;-70
2021/10/24 00:42:29;;;;;;;11.10;8.10;;;6.10;99.90;;;;;;5021855;28;20178;-70
2021/10/24 00:44:55;;;;;;;9.60;7.67;;;6.10;99.90;;;;;;5032652;28;20790;-70
2021/10/24 00:47:22;;;;;;;8.83;7.20;;;6.10;99.90;;;;;;5041970;28;20151;-70
2021/10/24 00:49:53;;;;;;;10.73;7.27;;;6.10;99.90;;;;;;5032465;28;20245;-70
2021/10/24 00:52:19;;;;;;;12.53;7.33;;;6.10;99.90;;;;;;5030220;28;20414;-70
2021/10/24 00:54:46;;;;;;;8.60;6.67;;;6.10;99.90;;;;;;5031258;28;20421;-70
2021/10/24 00:57:12;;;;;;;12.90;8.27;;;6.10;99.90;;;;;;5032270;28;20293;-70
2021/10/24 00:59:38;;;;;;;12.40;7.50;;;6.20;99.90;;;;;;5031786;28;20469;-70
2021/10/24 01:02:04;;;;;;;10.50;8.07;;;6.10;99.90;;;;;;5031655;28;20445;-70
2021/10/24 01:04:30;;;;;;;10.97;7.67;;;6.10;99.90;;;;;;5029356;28;20544;-70
2021/10/24 01:07:02;;;;;;;10.37;8.00;;;6.10;99.90;;;;;;5032195;28;20433;-70
2021/10/24 01:09:30;;;;;;;13.67;7.60;;;6.10;99.90;;;;;;5028064;28;20516;-70
2021/10/24 01:11:55;;;;;;;10.23;7.40;;;6.10;99.90;;;;;;5025915;28;20505;-70
2021/10/24 01:14:22;;;;;;;7.90;7.10;;;6.10;99.90;;;;;;5020823;28;20586;-70
2021/10/24 01:16:49;;;;;;;14.57;8.23;;;6.10;99.90;;;;;;5031242;28;20195;-70
2021/10/24 01:19:17;;;;;;;8.17;7.27;;;6.20;99.90;;;;;;5030995;28;20775;-70
2021/10/24 01:21:43;;;;;;;8.33;7.13;;;6.20;99.90;;;;;;5011644;28;20537;-70
2021/10/24 01:24:08;;;;;;;11.77;7.87;;;6.10;99.90;;;;;;5013864;28;20660;-70
2021/10/24 01:26:36;;;;;;;8.97;6.90;;;6.10;99.90;;;;;;5030808;28;20202;-71
2021/10/24 01:29:03;;;;;;;10.63;6.57;;;6.20;99.90;;;;;;5029520;28;20624;-69
2021/10/24 01:31:28;;;;;;;10.20;7.30;;;6.20;99.90;;;;;;5030376;28;20413;-70
2021/10/24 01:33:54;;;;;;;9.43;6.93;;;6.30;99.90;;;;;;5030379;27;20425;-70
2021/10/24 01:36:19;;;;;;;11.80;7.53;;;6.30;99.90;;;;;;5028828;28;20206;-71
2021/10/24 01:38:49;;;;;;;10.53;7.53;;;6.30;99.90;;;;;;5029492;28;20183;-70
2021/10/24 01:41:15;;;;;;;8.20;6.50;;;6.30;99.90;;;;;;5030619;28;20173;-69
2021/10/24 01:43:41;;;;;;;11.50;7.70;;;6.30;99.90;;;;;;5030305;28;20405;-71
2021/10/24 01:46:07;;;;;;;8.43;7.07;;;6.30;99.90;;;;;;5028692;28;20836;-70
2021/10/24 01:48:32;;;;;;;14.33;6.93;;;6.30;99.90;;;;;;5030454;28;20248;-70
2021/10/24 01:50:58;;;;;;;7.60;6.77;;;6.30;99.90;;;;;;5030604;28;20167;-70
2021/10/24 01:53:30;;;;;;;9.30;6.63;;;6.30;99.90;;;;;;5030072;28;20258;-70
2021/10/24 01:55:56;;;;;;;11.57;6.50;;;6.30;99.90;;;;;;5010701;28;20466;-69
2021/10/24 01:58:22;;;;;;;8.27;6.23;;;6.40;99.90;;;;;;5010541;28;20895;-70
2021/10/24 02:00:49;;;;;;;9.00;7.50;;;6.40;99.90;;;;;;5010465;28;20410;-70
2021/10/24 02:03:15;;;;;;;9.03;7.20;;;6.40;99.90;;;;;;5010307;27;20187;-69
2021/10/24 02:05:41;;;;;;;8.60;7.33;;;6.40;99.90;;;;;;5011499;28;20555;-70
2021/10/24 02:08:08;;;;;;;10.93;7.20;;;6.40;99.90;;;;;;5013980;28;20418;-70
2021/10/24 02:10:34;;;;;;;10.20;7.10;;;6.50;99.90;;;;;;5011720;28;20766;-70
2021/10/24 02:13:00;;;;;;;6.50;5.77;;;6.40;99.90;;;;;;5011046;28;20410;-70
2021/10/24 02:15:26;;;;;;;14.30;6.90;;;6.40;99.90;;;;;;5016687;28;20448;-70
2021/10/24 02:17:52;;;;;;;8.10;6.70;;;6.30;99.90;;;;;;5013164;28;20499;-71
2021/10/24 02:20:18;;;;;;;8.37;6.50;;;6.40;99.90;;;;;;5013564;28;20167;-71
2021/10/24 02:22:44;;;;;;;10.73;7.07;;;6.40;99.90;;;;;;5010398;28;20926;-70
2021/10/24 02:25:10;;;;;;;8.40;6.60;;;6.40;99.90;;;;;;5010237;28;20206;-69
2021/10/24 02:27:36;;;;;;;9.60;6.43;;;6.40;99.90;;;;;;5027676;28;20473;-69
2021/10/24 02:30:03;;;;;;;8.77;6.33;;;6.50;99.90;;;;;;5031631;28;20462;-70
2021/10/24 02:32:29;;;;;;;9.03;6.50;;;6.50;99.90;;;;;;5033420;28;20409;-70
2021/10/24 02:34:54;;;;;;;8.90;6.50;;;6.50;99.90;;;;;;5033744;28;20416;-71
2021/10/24 02:37:20;;;;;;;11.73;7.20;;;6.50;99.90;;;;;;5032013;27;20275;-70
2021/10/24 02:39:45;;;;;;;9.80;7.07;;;6.40;99.90;;;;;;5033363;28;20690;-70
2021/10/24 02:42:11;;;;;;;10.30;7.40;;;6.40;99.90;;;;;;5025797;28;20411;-70
2021/10/24 02:44:37;;;;;;;8.33;6.83;;;6.30;99.90;;;;;;5014146;28;20204;-69
2021/10/24 02:47:03;;;;;;;8.03;6.73;;;6.30;99.90;;;;;;5013438;28;20541;-69
2021/10/24 02:49:29;;;;;;;8.80;7.30;;;6.30;99.90;;;;;;5014444;28;20426;-69
2021/10/24 02:51:54;;;;;;;9.50;7.10;;;6.20;99.90;;;;;;5014621;28;20199;-70
2021/10/24 02:54:21;;;;;;;9.10;7.13;;;6.20;99.90;;;;;;5013287;28;20415;-69
2021/10/24 02:56:47;;;;;;;7.83;6.57;;;6.20;99.90;;;;;;5013266;28;20195;-69
2021/10/24 02:59:13;;;;;;;11.40;7.60;;;6.20;99.90;;;;;;5013283;28;20547;-69
2021/10/24 03:01:40;;;;;;;11.53;7.50;;;6.20;99.90;;;;;;5013622;28;20465;-69
2021/10/24 03:04:06;;;;;;;10.47;7.70;;;6.20;99.90;;;;;;5013755;28;20500;-70
2021/10/24 03:06:31;;;;;;;11.40;7.33;;;6.20;99.90;;;;;;5012834;28;20448;-70
2021/10/24 03:08:58;;;;;;;12.03;8.13;;;6.20;99.90;;;;;;5013796;27;20282;-69
2021/10/24 03:11:23;;;;;;;10.33;7.10;;;6.20;99.90;;;;;;5021930;28;20594;-70
2021/10/24 03:13:49;;;;;;;12.10;6.63;;;6.20;99.90;;;;;;5017523;28;20456;-69
2021/10/24 03:16:15;;;;;;;11.17;8.27;;;6.20;99.90;;;;;;5015495;28;20529;-70
2021/10/24 03:18:41;;;;;;;7.83;7.00;;;6.20;99.90;;;;;;5012536;28;20418;-70
2021/10/24 03:21:06;;;;;;;10.27;7.20;;;6.20;99.90;;;;;;5013063;28;20172;-70
2021/10/24 03:23:32;;;;;;;16.27;7.80;;;6.20;99.90;;;;;;5012920;28;20511;-70
2021/10/24 03:25:58;;;;;;;11.73;7.80;;;6.20;99.90;;;;;;5013763;28;20208;-71
2021/10/24 03:28:24;;;;;;;9.70;6.90;;;6.30;99.90;;;;;;5012897;28;20418;-71
2021/10/24 03:30:50;;;;;;;9.20;7.33;;;6.30;99.90;;;;;;5012574;28;20246;-70
2021/10/24 03:33:16;;;;;;;8.73;6.80;;;6.30;99.90;;;;;;5012816;28;20254;-71
2021/10/24 03:35:42;;;;;;;15.53;7.33;;;6.40;99.90;;;;;;5013652;28;21000;-71
2021/10/24 03:38:08;;;;;;;9.60;6.80;;;6.40;99.90;;;;;;5026783;28;20910;-70
2021/10/24 03:40:33;;;;;;;9.53;7.20;;;6.50;99.90;;;;;;5032194;28;20414;-69
2021/10/24 03:42:59;;;;;;;10.27;8.27;;;6.50;99.90;;;;;;5031452;27;20202;-69
2021/10/24 03:45:25;;;;;;;8.80;6.30;;;6.50;99.90;;;;;;5030358;28;20211;-70
2021/10/24 03:47:50;;;;;;;7.77;6.90;;;6.60;99.90;;;;;;5032755;28;20178;-70
2021/10/24 03:50:16;;;;;;;10.73;7.10;;;6.70;99.90;;;;;;5030877;28;20191;-69
2021/10/24 03:52:41;;;;;;;6.93;6.23;;;6.80;99.90;;;;;;5032618;28;20228;-69
2021/10/24 03:55:11;;;;;;;9.97;6.63;;;6.80;99.90;;;;;;5031686;27;20295;-69
2021/10/24 03:57:41;;;;;;;8.07;6.50;;;6.90;99.90;;;;;;5030365;28;20185;-70
2021/10/24 04:00:08;;;;;;;11.23;7.23;;;7.00;99.90;;;;;;5037030;28;20398;-69
2021/10/24 04:02:34;;;;;;;8.03;6.33;;;7.00;99.90;;;;;;5035339;28;20426;-70
2021/10/24 04:05:00;;;;;;;11.10;6.70;;;7.00;99.90;;;;;;5031888;28;20450;-69
2021/10/24 04:07:25;;;;;;;9.30;5.83;;;7.00;99.90;;;;;;5030264;27;20185;-69
2021/10/24 04:09:51;;;;;;;9.63;6.00;;;7.00;99.90;;;;;;5024189;28;20183;-69
2021/10/24 04:12:16;;;;;;;7.27;6.00;;;7.00;99.90;;;;;;5014370;28;20172;-70
2021/10/24 04:14:42;;;;;;;7.17;5.50;;;7.10;99.90;;;;;;5011688;28;20180;-70
2021/10/24 04:17:08;;;;;;;7.30;5.70;;;7.10;99.90;;;;;;5029308;28;20195;-70
2021/10/24 04:19:34;;;;;;;11.10;5.60;;;7.10;99.90;;;;;;5032371;27;20194;-70
2021/10/24 04:22:00;;;;;;;8.23;5.70;;;7.10;99.90;;;;;;5034406;28;20445;-70
2021/10/24 04:24:26;;;;;;;8.57;5.40;;;7.10;99.90;;;;;;5038554;28;20463;-70
2021/10/24 04:26:52;;;;;;;7.77;5.67;;;7.10;99.90;;;;;;5032357;28;20523;-69
2021/10/24 04:29:18;;;;;;;6.90;5.60;;;7.10;99.90;;;;;;5030449;27;20201;-69
2021/10/24 04:31:44;;;;;;;10.17;5.77;;;7.20;99.90;;;;;;5031805;28;20501;-70
2021/10/24 04:34:09;;;;;;;7.60;5.70;;;7.10;99.90;;;;;;5031527;28;20410;-69
2021/10/24 04:36:35;;;;;;;7.83;6.20;;;7.10;99.90;;;;;;5031584;28;20202;-69
2021/10/24 04:39:00;;;;;;;11.83;6.70;;;7.00;99.90;;;;;;5030565;28;20182;-70
2021/10/24 04:41:26;;;;;;;10.67;6.30;;;6.90;99.90;;;;;;5031703;28;20653;-69
2021/10/24 04:43:52;;;;;;;9.70;7.00;;;6.80;99.90;;;;;;5032164;28;20171;-70
2021/10/24 04:46:17;;;;;;;9.13;7.07;;;6.60;99.90;;;;;;5031947;28;20223;-70
2021/10/24 04:48:43;;;;;;;9.20;6.57;;;6.60;99.90;;;;;;5031415;27;20223;-70
2021/10/24 04:51:08;;;;;;;9.40;7.13;;;6.50;99.90;;;;;;5031757;28;20244;-70
2021/10/24 04:53:34;;;;;;;8.70;6.40;;;6.40;99.90;;;;;;5029133;28;20632;-70
2021/10/24 04:55:59;;;;;;;12.13;7.47;;;6.40;99.90;;;;;;5031151;28;20286;-69
2021/10/24 04:58:25;;;;;;;8.23;6.80;;;6.30;99.90;;;;;;5031526;28;20175;-70
2021/10/24 05:00:51;;;;;;;9.70;7.57;;;6.30;99.90;;;;;;5031699;28;20752;-70
2021/10/24 05:03:16;;;;;;;14.33;7.40;;;6.20;99.90;;;;;;5031798;28;20183;-69
2021/10/24 05:05:44;;;;;;;9.70;6.33;;;6.10;99.90;;;;;;5029258;28;20217;-69
2021/10/24 05:08:09;;;;;;;12.73;7.63;;;6.00;99.90;;;;;;5030947;28;20192;-70
2021/10/24 05:10:35;;;;;;;14.10;7.30;;;5.90;99.90;;;;;;5030992;28;20414;-70
2021/10/24 05:13:00;;;;;;;12.10;7.30;;;5.90;99.90;;;;;;5031016;28;20175;-70
2021/10/24 05:15:26;;;;;;;9.57;7.77;;;5.90;99.90;;;;;;5029200;28;20203;-70
2021/10/24 05:17:52;;;;;;;9.60;6.73;;;5.80;99.90;;;;;;5030892;27;20191;-70
2021/10/24 05:20:17;;;;;;;9.17;6.90;;;5.80;99.90;;;;;;5030887;28;20524;-70
2021/10/24 05:22:43;;;;;;;12.20;7.73;;;5.80;99.90;;;;;;5030855;28;20545;-70
2021/10/24 05:25:09;;;;;;;7.97;6.40;;;5.80;99.90;;;;;;5029452;28;20816;-70
2021/10/24 05:27:34;;;;;;;9.83;7.27;;;5.70;99.90;;;;;;5031246;28;20185;-70
2021/10/24 05:30:00;;;;;;;12.43;7.43;;;5.70;99.90;;;;;;5032201;28;20537;-70
2021/10/24 05:32:25;;;;;;;9.23;7.33;;;5.60;99.90;;;;;;5032736;28;20554;-70
2021/10/24 05:34:51;;;;;;;11.57;7.87;;;5.60;99.90;;;;;;5030597;28;20520;-70
2021/10/24 05:37:16;;;;;;;11.07;8.43;;;5.50;99.90;;;;;;5029247;28;20252;-69
2021/10/24 05:39:42;;;;;;;10.37;7.80;;;5.50;99.90;;;;;;5029214;28;20235;-69
2021/10/24 05:42:08;;;;;;;8.97;7.53;;;5.40;99.90;;;;;;5030442;28;20182;-69
2021/10/24 05:44:33;;;;;;;11.37;8.40;;;5.40;99.90;;;;;;5030097;28;20205;-70
2021/10/24 05:46:59;;;;;;;8.07;7.07;;;5.50;99.90;;;;;;5028926;27;20551;-69
2021/10/24 05:49:24;;;;;;;9.33;7.60;;;5.60;99.90;;;;;;5030298;28;20200;-70
2021/10/24 05:51:52;;;;;;;11.87;8.13;;;5.70;99.90;;;;;;5030826;28;20208;-70
2021/10/24 05:54:17;;;;;;;11.63;7.63;;;5.70;99.90;;;;;;5029857;28;20186;-70
2021/10/24 05:56:43;;;;;;;8.77;7.83;;;5.80;99.90;;;;;;5030232;28;20786;-70
2021/10/24 05:59:08;;;;;;;11.80;7.13;;;5.90;99.90;;;;;;5028950;28;20517;-70
2021/10/24 06:01:34;;;;;;;10.37;7.90;;;5.80;99.90;;;;;;5030435;28;20183;-70
2021/10/24 06:03:59;;;;;;;11.33;7.97;;;5.80;99.90;;;;;;5031209;28;20171;-69
2021/10/24 06:06:25;;;;;;;13.23;8.47;;;5.90;99.90;;;;;;5033933;28;20190;-69
2021/10/24 06:08:51;;;;;;;7.93;7.13;;;5.90;99.90;;;;;;5032303;28;20214;-70
2021/10/24 06:11:20;;;;;;;8.43;7.50;;;5.80;99.90;;;;;;5025459;27;20285;-70
2021/10/24 06:13:47;;;;;;;9.40;7.43;;;5.80;99.90;;;;;;5017246;28;20446;-69
2021/10/24 06:16:13;;;;;;;11.37;8.70;;;5.80;99.90;;;;;;5013638;28;20440;-69
2021/10/24 06:18:39;;;;;;;9.73;7.73;;;5.80;99.90;;;;;;5015274;28;20436;-70
2021/10/24 06:21:05;;;;;;;10.10;8.57;;;5.80;99.90;;;;;;5022527;28;20504;-69
2021/10/24 06:23:32;;;;;;;10.90;8.57;;;5.80;99.90;;;;;;5035359;28;20894;-69
2021/10/24 06:25:57;;;;;;;10.03;8.30;;;5.80;99.90;;;;;;5034680;28;20887;-69
2021/10/24 06:28:23;;;;;;;13.00;9.27;;;5.80;99.90;;;;;;5033921;28;20410;-69
2021/10/24 06:30:49;;;;;;;10.83;8.30;;;5.80;99.90;;;;;;5031617;28;20231;-70
2021/10/24 06:33:15;;;;;;;12.50;9.10;;;5.80;99.90;;;;;;5033683;28;20596;-70
2021/10/24 06:35:41;;;;;;;13.23;9.07;;;5.90;99.90;;;;;;5033605;28;20206;-70
2021/10/24 06:38:06;;;;;;;21.47;9.77;;;5.90;99.90;;;;;;5031873;27;20868;-69
2021/10/24 06:40:32;;;;;;;11.27;8.90;;;5.90;99.90;;;;;;5031453;28;20193;-70
2021/10/24 06:42:58;;;;;;;10.60;8.63;;;5.90;99.90;;;;;;5019589;28;20254;-70
2021/10/24 06:45:25;;;;;;;10.10;8.43;;;5.90;99.90;;;;;;5013234;28;20214;-70
2021/10/24 06:47:51;;;;;;;10.73;9.40;;;5.90;99.90;;;;;;5013351;28;20168;-69
2021/10/24 06:50:17;;;;;;;10.50;9.40;;;6.00;99.90;;;;;;5018653;27;20472;-70
2021/10/24 06:52:43;;;;;;;12.63;9.47;;;5.90;99.90;;;;;;5019712;28;20462;-69
2021/10/24 06:55:08;;;;;;;12.33;9.87;;;5.90;99.90;;;;;;5013226;28;20884;-69
2021/10/24 06:57:56;;;;;;;11.40;9.07;;;6.00;99.90;;;;;;5012918;28;20187;-69
2021/10/24 07:00:23;;;;;;;13.13;9.10;;;5.90;99.90;;;;;;5014047;28;20455;-69
2021/10/24 07:02:50;;;;;;;10.27;8.67;;;5.90;99.90;;;;;;5014699;28;20792;-70
2021/10/24 07:05:17;;;;;;;11.63;8.60;;;5.90;99.90;;;;;;5012644;28;20472;-69
2021/10/24 07:07:43;;;;;;;8.73;7.10;;;5.90;99.90;;;;;;5015372;27;20446;-69
2021/10/24 07:10:11;;;;;;;9.50;7.50;;;5.90;99.90;;;;;;5031640;28;20802;-69
2021/10/24 07:12:37;;;;;;;11.00;8.60;;;6.00;99.90;;;;;;5034436;28;20414;-69
2021/10/24 07:15:05;;;;;;;10.80;7.77;;;6.00;99.90;;;;;;5022099;28;20450;-69
2021/10/24 07:17:30;;;;;;;11.20;7.50;;;6.00;99.90;;;;;;5013798;28;20543;-69
2021/10/24 07:19:56;;;;;;;9.67;7.80;;;6.00;99.90;;;;;;5013575;28;20407;-69
2021/10/24 07:22:22;;;;;;;9.30;8.13;;;6.10;99.90;;;;;;5013745;28;20244;-69
2021/10/24 07:24:48;;;;;;;11.17;8.17;;;6.00;99.90;;;;;;5014190;28;20541;-69
2021/10/24 07:27:13;;;;;;;8.53;7.37;;;6.00;99.90;;;;;;5014151;27;20630;-69
2021/10/24 07:29:39;;;;;;;9.70;7.40;;;6.00;99.90;;;;;;5015122;28;20411;-70
2021/10/24 07:32:06;;;;;;;8.70;7.70;;;6.10;99.90;;;;;;5028339;28;20616;-69
2021/10/24 07:34:31;;;;;;;11.93;7.77;;;6.10;99.90;;;;;;5019397;28;20427;-70
2021/10/24 07:36:57;;;;;;;11.50;7.67;;;6.10;99.90;;;;;;5016181;27;20478;-71
2021/10/24 07:39:22;;;;;;;11.13;8.43;;;6.10;99.90;;;;;;5020198;28;20262;-70
2021/10/24 07:41:48;;;;;;;7.97;6.90;;;6.10;99.90;;;;;;5022527;28;20179;-69
2021/10/24 07:44:16;;;;;;;9.37;7.17;;;6.20;99.90;;;;;;5016075;28;20199;-70
2021/10/24 07:46:42;;;;;;;10.70;7.70;;;6.30;99.90;;;;;;5025123;28;20199;-70
2021/10/24 07:49:07;;;;;;;9.17;7.00;;;6.40;99.90;;;;;;5012547;27;20458;-70
2021/10/24 07:51:34;;;;;;;8.00;6.13;;;6.50;99.90;;;;;;5012575;28;20171;-70
2021/10/24 07:54:02;;;;;;;7.77;5.57;;;6.50;99.90;;;;;;5012666;28;20209;-70
2021/10/24 07:56:27;;;;;;;5.67;4.60;;;6.70;99.90;;;;;;5016966;28;20456;-70
2021/10/24 07:58:55;;;;;;;7.60;5.00;;;6.80;99.90;;;;;;5031919;28;20410;-70
2021/10/24 08:01:20;;;;;;;5.47;4.43;;;7.00;99.90;;;;;;5032456;28;20925;-70
2021/10/24 08:03:46;;;;;;;7.60;4.23;;;7.10;99.90;;;;;;5025217;27;20449;-70
2021/10/24 08:06:12;;;;;;;6.50;3.80;;;7.20;99.90;;;;;;5022100;28;20225;-70
2021/10/24 08:08:38;;;;;;;6.03;4.53;;;7.30;99.90;;;;;;5030055;28;20187;-70
2021/10/24 08:11:07;;;;;;;7.00;3.70;;;7.40;99.90;;;;;;5020330;27;20456;-70
2021/10/24 08:13:33;;;;;;;4.13;3.70;;;7.50;99.90;;;;;;5018644;28;20203;-70
2021/10/24 08:15:58;;;;;;;4.33;3.50;;;7.60;99.90;;;;;;5030499;27;21298;-69
2021/10/24 08:18:24;;;;;;;6.93;3.60;;;7.70;99.90;;;;;;5048419;27;20213;-71
2021/10/24 08:20:50;;;;;;;5.00;4.50;;;7.80;99.90;;;;;;5028100;27;20253;-69
2021/10/24 08:23:16;;;;;;;4.40;3.10;;;7.80;99.90;;;;;;5037103;28;20521;-70
2021/10/24 08:25:42;;;;;;;6.70;4.70;;;7.90;99.90;;;;;;5034799;27;20243;-71
2021/10/24 08:28:08;;;;;;;3.70;3.40;;;8.00;99.90;;;;;;5030847;28;20467;-71
2021/10/24 08:30:34;;;;;;;6.83;3.57;;;8.10;99.90;;;;;;5046161;27;20461;-70
2021/10/24 08:33:00;;;;;;;5.60;3.90;;;8.20;99.90;;;;;;5048872;28;20199;-69
2021/10/24 08:35:26;;;;;;;8.60;3.77;;;8.20;99.90;;;;;;5049340;27;20453;-70
2021/10/24 08:37:52;;;;;;;4.53;3.40;;;8.30;99.90;;;;;;5049106;28;20783;-71
2021/10/24 08:40:18;;;;;;;6.53;3.50;;;8.40;99.90;;;;;;5015791;27;20588;-71
2021/10/24 08:42:46;;;;;;;4.63;3.37;;;8.50;99.90;;;;;;5022082;27;20480;-70
2021/10/24 08:45:13;;;;;;;4.30;3.73;;;8.50;99.90;;;;;;5036753;27;20578;-70
2021/10/24 08:47:42;;;;;;;4.10;3.40;;;8.60;99.90;;;;;;5037001;28;20475;-69
2021/10/24 08:50:12;;;;;;;5.30;3.33;;;8.70;99.90;;;;;;5028591;27;20485;-70
2021/10/24 08:52:39;;;;;;;4.93;3.10;;;8.70;99.90;;;;;;5027990;28;20447;-71
2021/10/24 08:55:07;;;;;;;7.37;3.13;;;8.80;99.90;;;;;;5028174;27;20461;-70
2021/10/24 08:57:33;;;;;;;3.97;3.30;;;8.80;99.90;;;;;;5029278;28;20454;-70
2021/10/24 09:00:01;;;;;;;4.90;3.13;;;8.90;99.90;;;;;;5014889;27;20481;-71
2021/10/24 09:02:53;;;;;;;6.10;3.33;;;9.00;99.90;;;;;;5019520;28;20517;-68
2021/10/24 09:05:33;;;;;;;4.20;3.30;;;9.10;99.90;;;;;;5018246;27;20486;-70
2021/10/24 09:08:00;;;;;;;10.40;3.50;;;9.30;99.90;;;;;;5031883;28;20786;-71
2021/10/24 09:10:48;;;;;;;3.83;3.13;;;9.30;99.90;;;;;;5037137;27;20835;-71
2021/10/24 09:13:23;;;;;;;3.90;3.50;;;9.40;99.90;;;;;;5045427;28;20988;-69
2021/10/24 09:15:59;;;;;;;4.97;3.70;;;9.50;99.90;;;;;;5039539;27;20568;-69
2021/10/24 09:18:33;;;;;;;6.87;3.37;;;9.50;99.90;;;;;;5041461;28;20504;-71
2021/10/24 09:21:20;;;;;;;4.87;3.33;;;9.60;99.90;;;;;;5024857;28;20741;-69
2021/10/24 09:23:50;;;;;;;5.03;4.13;;;9.70;99.90;;;;;;5035894;27;20475;-70
2021/10/24 09:26:33;;;;;;;5.73;3.10;;;9.80;99.90;;;;;;5050602;28;20501;-69
2021/10/24 09:29:11;;;;;;;4.77;3.60;;;9.90;99.90;;;;;;5041552;27;20405;-70
2021/10/24 09:31:40;;;;;;;5.50;3.57;;;9.90;99.90;;;;;;5031021;28;20400;-70
2021/10/24 09:34:13;;;;;;;4.53;3.90;;;10.00;99.90;;;;;;5031011;28;20443;-70
2021/10/24 09:36:57;;;;;;;5.00;3.43;;;10.00;99.90;;;;;;5030479;28;20425;-70
2021/10/24 09:39:28;;;;;;;6.53;3.70;;;10.10;99.90;;;;;;5022410;27;20946;-70
2021/10/24 09:42:12;;;;;;;3.23;2.93;;;10.20;99.90;;;;;;5011204;28;20715;-70
2021/10/24 09:45:07;;;;;;;3.70;3.33;;;10.20;99.90;;;;;;5010974;28;20454;-70
2021/10/24 09:47:35;;;;;;;8.13;3.50;;;10.30;99.90;;;;;;5010836;28;20421;-71
2021/10/24 09:50:02;;;;;;;4.57;3.20;;;10.30;99.90;;;;;;5017037;28;20430;-70
2021/10/24 09:52:32;;;;;;;3.80;3.20;;;10.40;99.90;;;;;;5030871;28;20722;-70
2021/10/24 09:54:58;;;;;;;5.80;3.40;;;10.60;99.90;;;;;;5030635;28;20500;-70
2021/10/24 09:57:24;;;;;;;5.03;3.13;;;10.60;99.90;;;;;;5030665;28;20970;-70
2021/10/24 09:59:52;;;;;;;5.90;3.10;;;10.70;99.90;;;;;;5029801;28;20409;-71
2021/10/24 10:02:19;;;;;;;5.27;3.23;;;10.80;99.90;;;;;;5030290;28;20550;-71
2021/10/24 10:04:45;;;;;;;5.83;3.57;;;10.80;99.90;;;;;;5030263;28;20453;-71
2021/10/24 10:07:12;;;;;;;5.53;3.50;;;10.90;99.90;;;;;;5030549;28;20815;-70
2021/10/24 10:09:39;;;;;;;6.60;3.30;;;11.00;99.90;;;;;;5030497;28;20406;-71
2021/10/24 10:12:06;;;;;;;4.70;3.70;;;11.10;99.90;;;;;;5028470;27;20434;-70
2021/10/24 10:14:35;;;;;;;3.13;2.93;;;11.10;99.90;;;;;;5039667;28;20451;-70
2021/10/24 10:17:05;;;;;;;4.27;2.77;;;11.20;99.90;;;;;;5050347;28;20443;-70
2021/10/24 10:19:32;;;;;;;4.03;3.40;;;11.20;99.90;;;;;;5051125;28;20405;-71
2021/10/24 10:22:21;;;;;;;5.83;3.53;;;11.30;99.90;;;;;;5035647;28;20422;-70
2021/10/24 10:24:54;;;;;;;4.00;3.37;;;11.40;99.90;;;;;;5012025;28;20465;-70
2021/10/24 10:27:29;;;;;;;4.23;3.57;;;11.40;99.90;;;;;;5015307;28;20450;-70
2021/10/24 10:30:00;;;;;;;6.77;3.17;;;11.50;99.90;;;;;;5021290;28;20762;-70
2021/10/24 10:32:34;;;;;;;4.30;3.03;;;11.60;99.90;;;;;;5012137;28;20423;-71
2021/10/24 10:35:13;;;;;;;5.77;3.23;;;11.70;99.70;;;;;;5012138;28;20824;-70
2021/10/24 10:38:03;;;;;;;2.60;2.40;;;11.90;99.90;;;;;;5018583;28;20437;-70
2021/10/24 10:40:39;;;;;;;3.93;2.90;;;12.00;99.60;;;;;;5011119;28;20414;-70
2021/10/24 10:43:10;;;;;;;3.33;3.03;;;12.10;99.60;;;;;;5014289;28;20689;-69
2021/10/24 10:45:35;;;;;;;4.50;2.67;;;12.20;99.70;;;;;;5035913;27;20994;-70
2021/10/24 10:48:06;;;;;;;3.77;2.93;;;12.30;99.00;;;;;;5019545;28;20460;-70
2021/10/24 10:50:38;;;;;;;4.70;3.13;;;12.40;98.90;;;;;;5015787;28;20184;-71
2021/10/24 10:53:24;;;;;;;3.40;2.40;;;12.40;98.60;;;;;;5025907;28;20419;-71
2021/10/24 10:55:56;;;;;;;4.57;2.70;;;12.50;98.60;;;;;;5045364;27;20826;-71
2021/10/24 10:58:32;;;;;;;3.20;2.73;;;12.50;98.50;;;;;;5012487;28;20597;-71
2021/10/24 11:00:59;;;;;;;3.20;2.43;;;12.50;98.40;;;;;;5013577;28;20398;-70
2021/10/24 11:04:08;;;;;;;4.87;2.60;;;12.60;98.60;;;;;;5013927;28;20422;-71
2021/10/24 11:06:34;;;;;;;3.27;2.60;;;12.70;98.10;;;;;;5057503;28;20458;-71
2021/10/24 11:09:11;;;;;;;3.10;2.77;;;12.80;98.20;;;;;;5024772;28;20748;-70
2021/10/24 11:11:45;;;;;;;6.47;2.90;;;12.80;97.60;;;;;;5136156;27;20291;-70
2021/10/24 11:14:14;;;;;;;2.60;2.37;;;12.90;97.40;;;;;;5139106;27;20465;-71
2021/10/24 11:16:44;;;;;;;3.80;2.30;;;12.90;97.20;;;;;;5023101;27;20451;-70
2021/10/24 11:19:31;;;;;;;4.33;2.60;;;12.90;97.00;;;;;;5013676;28;20910;-70
2021/10/24 11:21:59;;;;;;;6.30;2.83;;;13.00;97.00;;;;;;5006448;28;20819;-70
2021/10/24 11:24:45;;;;;;;2.67;2.40;;;13.00;97.00;;;;;;5013256;28;20442;-71
2021/10/24 11:27:18;;;;;;;4.57;2.37;;;13.00;97.20;;;;;;5014787;28;20920;-71
2021/10/24 11:29:56;;;;;;;4.17;2.17;;;12.90;96.80;;;;;;5013518;28;20399;-71
2021/10/24 11:32:24;;;;;;;3.90;2.87;;;12.90;96.80;;;;;;5012783;27;20934;-71
2021/10/24 11:34:50;;;;;;;6.27;3.23;;;12.90;97.10;;;;;;5013014;28;20490;-71
2021/10/24 11:37:17;;;;;;;5.20;2.60;;;12.90;97.20;;;;;;5013836;28;20442;-70
2021/10/24 11:39:52;;;;;;;3.67;2.43;;;13.00;97.20;;;;;;5013928;28;20489;-70
2021/10/24 11:42:18;;;;;;;2.70;2.10;;;13.00;97.20;;;;;;5009591;27;20455;-71
2021/10/24 11:44:44;;;;;;;4.73;2.70;;;13.20;96.70;;;;;;5001271;27;20462;-70
2021/10/24 11:47:12;;;;;;;4.50;2.30;;;13.30;96.50;;;;;;5021665;28;20575;-71
2021/10/24 11:49:49;;;;;;;3.50;2.10;;;13.30;96.60;;;;;;5032070;28;20437;-70
2021/10/24 11:52:29;;;;;;;2.57;2.30;;;13.40;96.30;;;;;;5018472;28;20429;-70
2021/10/24 11:55:09;;;;;;;3.00;2.27;;;13.40;96.00;;;;;;5026021;27;20457;-71
2021/10/24 12:00:38;;;;;;;3.10;2.80;;;13.30;96.20;;;;;;5048924;27;20448;-71
2021/10/24 12:03:03;;;;;;;3.10;2.17;;;13.30;95.90;;;;;;5026347;27;20541;-70
2021/10/24 12:05:30;;;;;;;2.40;2.20;;;13.40;95.90;;;;;;5023081;27;20488;-69
2021/10/24 12:07:57;;;;;;;4.10;2.57;;;13.40;95.90;;;;;;5014138;28;20494;-71
2021/10/24 12:10:52;;;;;;;2.87;2.27;;;13.40;95.70;;;;;;5009728;27;20466;-70
2021/10/24 12:13:36;;;;;;;4.17;2.30;;;13.50;95.40;;;;;;5008622;28;20462;-70
2021/10/24 12:16:02;;;;;;;2.77;2.30;;;13.50;95.00;;;;;;5010394;27;20493;-71
2021/10/24 12:18:29;;;;;;;3.07;2.20;;;13.50;95.20;;;;;;5012564;28;20506;-71
2021/10/24 12:20:59;;;;;;;2.53;2.27;;;13.50;95.20;;;;;;5027745;28;20491;-70
2021/10/24 12:23:31;;;;;;;4.83;2.33;;;13.50;95.10;;;;;;5028079;28;20819;-70
2021/10/24 12:26:00;;;;;;;4.37;2.40;;;13.50;95.20;;;;;;5026192;28;20997;-70
2021/10/24 12:28:33;;;;;;;3.37;2.33;;;13.60;95.10;;;;;;5028480;28;20417;-71
2021/10/24 12:31:25;;;;;;;11.93;2.10;;;13.60;95.00;;;;;;5026660;28;20422;-71
2021/10/24 12:33:51;;;;;;;4.30;2.53;;;13.60;94.70;;;;;;5027427;28;20938;-72
2021/10/24 12:36:30;;;;;;;3.33;2.00;;;13.60;94.80;;;;;;5027063;27;20449;-71
2021/10/24 12:38:58;;;;;;;2.53;1.83;;;13.60;95.10;;;;;;5020550;28;20217;-69
2021/10/24 12:41:44;;;;;;;3.13;2.13;;;13.60;95.30;;;;;;5020481;28;20554;-70
2021/10/24 12:44:15;;;;;;;3.83;2.20;;;13.60;95.40;;;;;;5025422;28;20516;-69
2021/10/24 12:46:42;;;;;;;4.17;2.03;;;13.60;94.60;;;;;;5027710;28;20655;-70
2021/10/24 12:49:22;;;;;;;3.97;2.43;;;13.60;94.30;;;;;;5026800;28;20444;-70
2021/10/24 12:52:08;;;;;;;5.33;2.40;;;13.50;94.40;;;;;;5027170;28;20413;-70
2021/10/24 12:54:34;;;;;;;4.07;2.33;;;13.60;94.70;;;;;;5013520;28;20459;-71
2021/10/24 12:57:00;;;;;;;3.40;1.97;;;13.60;94.50;;;;;;5019483;28;20434;-70
2021/10/24 12:59:26;;;;;;;2.90;2.10;;;13.60;94.50;;;;;;5020225;28;20185;-70